Wheeler, Wisconsin
Current Conditions -  °F | °C
As of 7:15 PM on Saturday 25 Oct 2014 (Local Time) from KLUM Reporting Station
Clear Clear  
Wind Chill: 55°   Ceiling: Unl
Heat Index: 55°   Visibility: 10mi
Dew Point: 25°   Wind: 9mph
Humidity: 31%   Direction: 280°W
Pressure: 30"   Gusts: NA
Location:  45.04°N, 91.91°W
Report Text: KLUM 260015Z AUTO 28008KT 10SM CLR 13/M04 A3000 RMK AO2 T01261041
Loading
Personal Weather Stations






























Interactive Weather Map
Tropical Storm Tracking
New forecast layout! Learn more

10-Day Weather Forecast

Advertisements
Track Severe Weather on mobile